createdAt,value
2022-08-16T00:00:38.663Z,13.90
2022-08-16T00:01:35.671Z,13.80
2022-08-16T00:02:33.767Z,13.90
2022-08-16T00:03:32.752Z,14.00
2022-08-16T00:04:33.755Z,14.00
2022-08-16T00:05:35.196Z,14.10
2022-08-16T00:06:33.717Z,14.10
2022-08-16T00:07:32.711Z,14.00
2022-08-16T00:08:37.065Z,13.80
2022-08-16T00:09:32.686Z,13.90
2022-08-16T00:10:32.688Z,14.00
2022-08-16T00:11:32.666Z,14.00
2022-08-16T00:12:32.656Z,14.00
2022-08-16T00:13:32.644Z,13.80
2022-08-16T00:14:33.628Z,13.90
2022-08-16T00:15:52.159Z,14.00
2022-08-16T00:17:01.100Z,14.00
2022-08-16T00:17:57.030Z,13.90
2022-08-16T00:18:33.585Z,14.00
2022-08-16T00:19:41.460Z,13.90
2022-08-16T00:20:33.577Z,14.00
2022-08-16T00:21:32.570Z,13.80
2022-08-16T00:22:32.546Z,13.80
2022-08-16T00:23:34.757Z,14.00
2022-08-16T00:24:33.554Z,14.20
2022-08-16T00:26:13.594Z,14.10
2022-08-16T00:26:35.511Z,13.90
2022-08-16T00:27:33.491Z,14.10
2022-08-16T00:28:32.480Z,13.90
2022-08-16T00:29:32.756Z,13.90
2022-08-16T00:30:32.458Z,14.00
2022-08-16T00:31:59.995Z,14.10
2022-08-16T00:32:33.731Z,13.90
2022-08-16T00:33:32.427Z,13.90
2022-08-16T00:34:44.781Z,13.80
2022-08-16T00:35:34.965Z,14.00
2022-08-16T00:36:32.397Z,14.10
2022-08-16T00:37:56.807Z,14.10
2022-08-16T00:38:40.269Z,13.90
2022-08-16T00:39:33.423Z,14.00
2022-08-16T00:40:34.307Z,14.00
2022-08-16T00:41:32.342Z,14.10
2022-08-16T00:42:33.325Z,13.90
2022-08-16T00:43:43.258Z,14.10
2022-08-16T00:44:33.320Z,14.10
2022-08-16T00:45:35.513Z,13.80
2022-08-16T00:46:34.941Z,13.90
2022-08-16T00:47:32.274Z,14.00
2022-08-16T00:48:44.008Z,13.80
2022-08-16T00:49:39.330Z,13.90
2022-08-16T00:50:36.210Z,14.00
2022-08-16T00:51:32.232Z,13.90
2022-08-16T00:52:32.217Z,14.10
2022-08-16T00:53:32.212Z,14.00
2022-08-16T00:54:32.890Z,14.00
2022-08-16T00:55:37.617Z,14.00
2022-08-16T00:56:57.177Z,13.90
2022-08-16T00:57:59.255Z,14.00
2022-08-16T00:58:34.788Z,14.00
2022-08-16T00:59:32.923Z,14.00
2022-08-16T01:00:32.222Z,14.10
2022-08-16T01:01:32.123Z,13.90
2022-08-16T01:02:33.057Z,14.00
2022-08-16T01:03:34.968Z,13.90
2022-08-16T01:04:32.104Z,13.90
2022-08-16T01:05:32.885Z,14.10
2022-08-16T01:06:32.538Z,14.00
2022-08-16T01:07:51.075Z,14.00
2022-08-16T01:08:36.340Z,14.00
2022-08-16T01:09:33.620Z,14.00
2022-08-16T01:10:33.385Z,14.00
2022-08-16T01:11:32.015Z,14.10
2022-08-16T01:12:32.003Z,13.90
2022-08-16T01:13:31.996Z,14.20
2022-08-16T01:14:31.987Z,14.00
2022-08-16T01:15:31.970Z,14.20
2022-08-16T01:16:31.962Z,13.90
2022-08-16T01:17:36.612Z,14.00
2022-08-16T01:18:39.781Z,14.10
2022-08-16T01:19:32.933Z,14.00
2022-08-16T01:20:31.916Z,14.00
2022-08-16T01:21:33.707Z,13.80
2022-08-16T01:22:48.591Z,14.00
2022-08-16T01:23:57.895Z,13.90
2022-08-16T01:24:51.396Z,13.90
2022-08-16T01:25:34.119Z,13.90
2022-08-16T01:26:34.420Z,13.90
2022-08-16T01:27:34.646Z,13.80
2022-08-16T01:28:34.698Z,13.90
2022-08-16T01:29:45.492Z,14.00
2022-08-16T01:30:32.811Z,14.00
2022-08-16T01:31:31.793Z,14.20
2022-08-16T01:32:34.429Z,14.20
2022-08-16T01:33:33.303Z,13.80
2022-08-16T01:34:31.771Z,14.10
2022-08-16T01:35:35.081Z,14.10
2022-08-16T01:36:31.737Z,13.90
2022-08-16T01:37:35.864Z,14.10
2022-08-16T01:38:31.723Z,14.00
2022-08-16T01:39:31.782Z,13.90
2022-08-16T01:40:31.701Z,14.00
2022-08-16T01:41:31.686Z,14.00
2022-08-16T01:42:31.676Z,14.10
2022-08-16T01:43:31.766Z,13.80
2022-08-16T01:44:37.784Z,13.90
2022-08-16T01:45:40.841Z,13.90
2022-08-16T01:46:39.818Z,13.90
2022-08-16T01:47:33.109Z,14.00
2022-08-16T01:48:31.619Z,13.70
2022-08-16T01:49:43.281Z,13.60
2022-08-16T01:50:42.372Z,13.90
2022-08-16T01:51:32.573Z,13.80
2022-08-16T01:52:31.567Z,14.00
2022-08-16T01:53:31.565Z,13.90
2022-08-16T01:54:31.542Z,13.80
2022-08-16T01:55:35.602Z,13.80
2022-08-16T01:56:31.517Z,13.90
2022-08-16T01:57:31.824Z,13.90
2022-08-16T01:58:31.508Z,14.00
2022-08-16T01:59:31.487Z,13.80
2022-08-16T02:00:31.475Z,13.90
2022-08-16T02:01:31.983Z,13.80
2022-08-16T02:02:31.516Z,13.80
2022-08-16T02:03:31.446Z,14.00
2022-08-16T02:04:49.042Z,13.70
2022-08-16T02:05:32.426Z,13.90
2022-08-16T02:06:34.564Z,13.80
2022-08-16T02:07:31.398Z,13.80
2022-08-16T02:08:32.885Z,13.80
2022-08-16T02:09:33.731Z,13.80
2022-08-16T02:10:31.366Z,13.90
2022-08-16T02:11:47.472Z,14.10
2022-08-16T02:12:51.681Z,13.80
2022-08-16T02:13:32.825Z,14.10
2022-08-16T02:14:31.341Z,13.90
2022-08-16T02:15:35.641Z,13.80
2022-08-16T02:16:32.299Z,13.90
2022-08-16T02:17:31.292Z,14.00
2022-08-16T02:18:31.293Z,14.70
2022-08-16T02:19:58.779Z,14.00
2022-08-16T02:20:32.254Z,13.80
2022-08-16T02:21:31.853Z,14.00
2022-08-16T02:22:34.338Z,13.80
2022-08-16T02:23:31.240Z,14.10
2022-08-16T02:24:32.144Z,15.10
2022-08-16T02:25:47.481Z,17.50
2022-08-16T02:26:34.460Z,14.50
2022-08-16T02:27:31.181Z,13.80
2022-08-16T02:28:31.168Z,14.30
2022-08-16T02:29:31.853Z,14.30
2022-08-16T02:30:37.485Z,14.30
2022-08-16T02:32:03.485Z,14.20
2022-08-16T02:32:50.366Z,14.20
2022-08-16T02:33:44.685Z,14.60
2022-08-16T02:34:33.001Z,14.40
2022-08-16T02:35:32.092Z,13.90
2022-08-16T02:36:47.736Z,14.90
2022-08-16T02:37:51.444Z,14.70
2022-08-16T02:38:32.239Z,14.00
2022-08-16T02:39:31.087Z,13.90
2022-08-16T02:40:31.039Z,13.80
2022-08-16T02:41:31.031Z,14.60
2022-08-16T02:42:31.016Z,14.60
2022-08-16T02:43:33.240Z,13.80
2022-08-16T02:44:30.994Z,14.40
2022-08-16T02:45:30.987Z,16.40
2022-08-16T02:46:33.656Z,13.70
2022-08-16T02:47:30.965Z,14.10
2022-08-16T02:48:31.960Z,14.30
2022-08-16T02:49:58.157Z,13.70
2022-08-16T02:50:55.226Z,13.90
2022-08-16T02:51:31.918Z,13.90
2022-08-16T02:52:30.908Z,13.80
2022-08-16T02:53:30.915Z,13.80
2022-08-16T02:54:30.885Z,14.90
2022-08-16T02:55:41.126Z,15.20
2022-08-16T02:56:32.438Z,13.80
2022-08-16T02:57:30.855Z,13.80
2022-08-16T02:58:30.858Z,14.40
2022-08-16T02:59:39.684Z,15.00
2022-08-16T03:00:35.006Z,13.90
2022-08-16T03:01:33.879Z,13.90
2022-08-16T03:02:32.439Z,13.90
2022-08-16T03:04:39.727Z,14.90
2022-08-16T03:04:50.581Z,14.40
2022-08-16T03:05:31.819Z,13.70
2022-08-16T03:06:39.132Z,14.50
2022-08-16T03:07:37.314Z,16.00
2022-08-16T03:08:52.661Z,14.20
2022-08-16T03:09:32.707Z,14.00
2022-08-16T03:10:33.270Z,14.10
2022-08-16T03:11:35.388Z,13.90
2022-08-16T03:12:37.761Z,14.10
2022-08-16T03:13:31.692Z,13.90
2022-08-16T03:14:31.689Z,14.80
2022-08-16T03:15:30.682Z,14.70
2022-08-16T03:16:38.312Z,13.90
2022-08-16T03:17:32.393Z,14.60
2022-08-16T03:18:34.500Z,13.90
2022-08-16T03:19:46.940Z,14.10
2022-08-16T03:20:32.295Z,14.10
2022-08-16T03:21:37.771Z,14.00
2022-08-16T03:22:31.590Z,14.70
2022-08-16T03:23:35.525Z,14.50
2022-08-16T03:24:31.577Z,14.90
2022-08-16T03:25:44.073Z,17.30
2022-08-16T03:26:31.539Z,14.30
2022-08-16T03:27:32.485Z,14.60
2022-08-16T03:28:30.518Z,15.40
2022-08-16T03:29:30.617Z,14.90
2022-08-16T03:30:30.499Z,14.20
2022-08-16T03:31:34.852Z,14.30
2022-08-16T03:32:31.615Z,15.60
2022-08-16T03:33:30.464Z,15.60
2022-08-16T03:34:30.452Z,16.20
2022-08-16T03:35:32.682Z,14.00
2022-08-16T03:36:32.917Z,14.30
2022-08-16T03:37:30.426Z,14.90
2022-08-16T03:38:34.537Z,14.20
2022-08-16T03:39:30.440Z,14.20
2022-08-16T03:40:32.900Z,16.00
2022-08-16T03:41:49.591Z,14.20
2022-08-16T03:42:31.372Z,14.30
2022-08-16T03:43:51.011Z,14.40
2022-08-16T03:44:43.800Z,14.70
2022-08-16T03:45:31.443Z,15.00
2022-08-16T03:46:44.961Z,14.60
2022-08-16T03:47:34.241Z,14.70
2022-08-16T03:48:36.677Z,14.10
2022-08-16T03:49:36.499Z,14.20
2022-08-16T03:50:31.277Z,16.50
2022-08-16T03:51:30.270Z,14.50
2022-08-16T03:52:31.331Z,14.70
2022-08-16T03:53:37.666Z,14.10
2022-08-16T03:54:31.234Z,14.40
2022-08-16T03:55:31.380Z,15.00
2022-08-16T03:56:31.215Z,14.30
2022-08-16T03:57:31.762Z,15.60
2022-08-16T03:58:31.189Z,15.90
2022-08-16T03:59:30.410Z,14.40
2022-08-16T04:00:35.672Z,14.10
2022-08-16T04:01:31.194Z,15.00
2022-08-16T04:02:31.604Z,14.40
2022-08-16T04:03:30.135Z,14.60
2022-08-16T04:04:33.302Z,14.30
2022-08-16T04:05:30.563Z,14.90
2022-08-16T04:06:30.119Z,14.50
2022-08-16T04:07:32.667Z,14.10
2022-08-16T04:08:30.087Z,14.70
2022-08-16T04:09:30.073Z,14.90
2022-08-16T04:10:37.353Z,14.70
2022-08-16T04:11:36.876Z,14.40
2022-08-16T04:12:54.481Z,14.60
2022-08-16T04:14:00.921Z,14.90
2022-08-16T04:14:33.335Z,14.30
2022-08-16T04:15:30.011Z,14.30
2022-08-16T04:16:29.995Z,15.10
2022-08-16T04:17:29.997Z,16.10
2022-08-16T04:18:29.974Z,14.80
2022-08-16T04:19:31.755Z,14.70
2022-08-16T04:20:33.845Z,14.60
2022-08-16T04:21:30.944Z,15.30
2022-08-16T04:22:29.943Z,15.20
2022-08-16T04:23:29.918Z,15.30
2022-08-16T04:24:29.909Z,15.10
2022-08-16T04:25:29.896Z,15.10
2022-08-16T04:26:30.949Z,14.70
2022-08-16T04:27:31.758Z,15.90
2022-08-16T04:28:54.288Z,14.30
2022-08-16T04:29:46.048Z,13.90
2022-08-16T04:30:32.403Z,14.70
2022-08-16T04:31:30.498Z,15.50
2022-08-16T04:32:29.834Z,14.60
2022-08-16T04:33:29.853Z,14.60
2022-08-16T04:34:30.801Z,14.60
2022-08-16T04:35:34.093Z,15.20
2022-08-16T04:36:29.779Z,14.80
2022-08-16T04:37:29.778Z,14.50
2022-08-16T04:38:30.495Z,14.40
2022-08-16T04:39:45.783Z,14.70
2022-08-16T04:40:30.767Z,14.40
2022-08-16T04:41:32.760Z,14.60
2022-08-16T04:42:35.725Z,15.70
2022-08-16T04:43:30.702Z,14.20
2022-08-16T04:44:52.622Z,14.90
2022-08-16T04:45:36.304Z,15.90
2022-08-16T04:47:00.537Z,14.80
2022-08-16T04:47:32.843Z,15.20
2022-08-16T04:48:32.405Z,14.70
2022-08-16T04:49:38.517Z,14.40
2022-08-16T04:50:30.764Z,17.10
2022-08-16T04:51:36.159Z,17.20
2022-08-16T04:52:33.294Z,15.40
2022-08-16T04:53:29.596Z,14.50
2022-08-16T04:54:29.588Z,14.40
2022-08-16T04:55:31.913Z,15.50
2022-08-16T04:56:30.567Z,15.30
2022-08-16T04:57:30.076Z,14.80
2022-08-16T04:58:46.100Z,14.50
2022-08-16T04:59:30.531Z,14.50
2022-08-16T05:00:30.729Z,14.90
2022-08-16T05:01:55.869Z,15.20
2022-08-16T05:02:42.008Z,15.70
2022-08-16T05:03:30.538Z,14.90
2022-08-16T05:04:30.082Z,14.60
2022-08-16T05:05:32.883Z,15.00
2022-08-16T05:06:45.360Z,16.20
2022-08-16T05:07:30.465Z,16.50
2022-08-16T05:08:31.062Z,14.70
2022-08-16T05:09:29.431Z,14.10
2022-08-16T05:10:29.832Z,14.80
2022-08-16T05:11:32.204Z,14.80
2022-08-16T05:12:30.617Z,14.10
2022-08-16T05:13:40.653Z,14.50
2022-08-16T05:14:45.380Z,14.10
2022-08-16T05:15:30.360Z,14.70
2022-08-16T05:16:29.894Z,14.50
2022-08-16T05:17:29.353Z,14.70
2022-08-16T05:18:29.332Z,14.80
2022-08-16T05:19:36.102Z,14.40
2022-08-16T05:20:38.671Z,15.50
2022-08-16T05:21:38.318Z,15.50
2022-08-16T05:22:30.302Z,14.70
2022-08-16T05:23:31.761Z,14.70
2022-08-16T05:24:29.271Z,14.80
2022-08-16T05:25:36.408Z,15.30
2022-08-16T05:26:30.249Z,14.40
2022-08-16T05:27:29.246Z,14.90
2022-08-16T05:28:30.927Z,15.20
2022-08-16T05:29:57.618Z,14.30
2022-08-16T05:30:34.381Z,14.60
2022-08-16T05:31:30.554Z,15.30
2022-08-16T05:32:32.391Z,14.40
2022-08-16T05:33:30.168Z,14.20
2022-08-16T05:34:29.160Z,15.10
2022-08-16T05:35:29.148Z,14.60
2022-08-16T05:36:34.435Z,14.50
2022-08-16T05:37:39.525Z,14.40
2022-08-16T05:38:32.204Z,14.30
2022-08-16T05:39:29.189Z,15.30
2022-08-16T05:40:29.095Z,14.80
2022-08-16T05:41:29.081Z,14.80
2022-08-16T05:42:35.687Z,14.50
2022-08-16T05:43:32.007Z,14.50
2022-08-16T05:44:30.050Z,14.60
2022-08-16T05:45:29.038Z,14.70
2022-08-16T05:46:30.679Z,15.20
2022-08-16T05:47:30.323Z,14.70
2022-08-16T05:48:29.010Z,14.90
2022-08-16T05:49:36.945Z,14.20
2022-08-16T05:50:34.467Z,14.90
2022-08-16T05:51:38.569Z,14.30
2022-08-16T05:52:29.973Z,14.70
2022-08-16T05:53:28.962Z,13.80
2022-08-16T05:54:28.946Z,14.10
2022-08-16T05:55:28.932Z,14.80
2022-08-16T05:56:28.921Z,14.40
2022-08-16T05:57:34.359Z,14.20
2022-08-16T05:58:33.178Z,14.50
2022-08-16T05:59:28.897Z,14.70
2022-08-16T06:00:28.928Z,14.70
2022-08-16T06:01:28.911Z,14.80
2022-08-16T06:02:29.197Z,13.90
2022-08-16T06:03:29.664Z,14.00
2022-08-16T06:04:36.150Z,14.50
2022-08-16T06:05:29.816Z,15.20
2022-08-16T06:06:29.805Z,14.50
2022-08-16T06:07:28.819Z,13.80
2022-08-16T06:08:32.369Z,14.90
2022-08-16T06:09:43.042Z,14.40
2022-08-16T06:10:32.952Z,15.60
2022-08-16T06:11:28.749Z,14.40
2022-08-16T06:12:29.114Z,14.00
2022-08-16T06:13:28.732Z,14.20
2022-08-16T06:14:29.451Z,14.10
2022-08-16T06:15:28.708Z,14.80
2022-08-16T06:16:28.706Z,14.00
2022-08-16T06:17:42.438Z,14.20
2022-08-16T06:18:29.675Z,14.10
2022-08-16T06:19:28.685Z,14.80
2022-08-16T06:20:35.317Z,14.20
2022-08-16T06:21:29.640Z,13.80
2022-08-16T06:22:38.955Z,14.80
2022-08-16T06:23:32.364Z,14.40
2022-08-16T06:24:53.521Z,14.30
2022-08-16T06:25:36.081Z,14.60
2022-08-16T06:26:36.817Z,14.60
2022-08-16T06:27:39.771Z,14.50
2022-08-16T06:28:36.358Z,14.40
2022-08-16T06:29:29.552Z,14.10
2022-08-16T06:30:28.673Z,14.10
2022-08-16T06:31:28.532Z,14.70
2022-08-16T06:32:29.574Z,14.00
2022-08-16T06:33:28.515Z,13.90
2022-08-16T06:34:55.828Z,15.40
2022-08-16T06:35:40.441Z,15.20
2022-08-16T06:36:29.482Z,13.80
2022-08-16T06:37:37.457Z,14.50
2022-08-16T06:38:33.994Z,14.30
2022-08-16T06:39:29.492Z,14.20
2022-08-16T06:40:33.342Z,14.70
2022-08-16T06:41:29.422Z,13.80
2022-08-16T06:42:29.423Z,14.00
2022-08-16T06:43:29.404Z,14.20
2022-08-16T06:44:28.402Z,15.00
2022-08-16T06:45:29.353Z,13.70
2022-08-16T06:46:31.870Z,13.80
2022-08-16T06:47:52.497Z,13.90
2022-08-16T06:48:33.141Z,14.10
2022-08-16T06:49:28.340Z,13.70
2022-08-16T06:50:31.533Z,14.00
2022-08-16T06:51:45.660Z,14.10
2022-08-16T06:53:00.733Z,13.80
2022-08-16T06:53:29.801Z,13.70
2022-08-16T06:54:28.282Z,13.90
2022-08-16T06:55:33.513Z,14.70
2022-08-16T06:56:29.259Z,13.70
2022-08-16T06:57:28.260Z,13.10
2022-08-16T06:58:31.319Z,13.50
2022-08-16T06:59:28.225Z,13.20
2022-08-16T07:00:28.343Z,13.50
2022-08-16T07:01:44.556Z,14.30
2022-08-16T07:02:32.807Z,13.70
2022-08-16T07:03:32.345Z,12.90
2022-08-16T07:04:32.966Z,13.40
2022-08-16T07:05:41.949Z,13.60
2022-08-16T07:06:29.146Z,13.60
2022-08-16T07:07:32.407Z,14.30
2022-08-16T07:08:29.127Z,13.00
2022-08-16T07:09:29.583Z,12.90
2022-08-16T07:10:28.105Z,13.70
2022-08-16T07:11:45.693Z,13.30
2022-08-16T07:12:36.683Z,13.50
2022-08-16T07:13:57.707Z,13.10
2022-08-16T07:14:29.242Z,12.90
2022-08-16T07:15:28.055Z,12.90
2022-08-16T07:16:28.040Z,14.50
2022-08-16T07:17:28.054Z,13.70
2022-08-16T07:18:28.020Z,12.80
2022-08-16T07:20:02.095Z,13.20
2022-08-16T07:20:34.682Z,12.80
2022-08-16T07:21:46.533Z,12.70
2022-08-16T07:22:37.393Z,12.80
2022-08-16T07:23:37.164Z,12.40
2022-08-16T07:24:30.204Z,12.80
2022-08-16T07:25:27.948Z,12.90
2022-08-16T07:26:27.938Z,12.60
2022-08-16T07:27:27.938Z,12.30
2022-08-16T07:28:27.916Z,12.30
2022-08-16T07:29:27.909Z,13.50
2022-08-16T07:30:45.115Z,11.80
2022-08-16T07:31:37.953Z,11.80
2022-08-16T07:32:29.615Z,12.50
2022-08-16T07:33:51.487Z,11.50
2022-08-16T07:34:35.695Z,11.80
2022-08-16T07:35:28.871Z,13.20
2022-08-16T07:36:29.038Z,12.30
2022-08-16T07:37:27.872Z,11.50
2022-08-16T07:38:33.665Z,11.50
2022-08-16T07:39:33.100Z,13.60
2022-08-16T07:40:56.313Z,12.50
2022-08-16T07:41:28.785Z,11.70
2022-08-16T07:42:34.764Z,11.60
2022-08-16T07:43:29.647Z,12.70
2022-08-16T07:44:27.757Z,11.50
2022-08-16T07:45:28.744Z,11.60
2022-08-16T07:46:37.540Z,11.80
2022-08-16T07:47:31.507Z,11.70
2022-08-16T07:48:27.716Z,11.50
2022-08-16T07:49:32.486Z,11.20
2022-08-16T07:50:56.186Z,13.10
2022-08-16T07:51:28.686Z,11.70
2022-08-16T07:52:29.845Z,11.00
2022-08-16T07:53:28.824Z,11.10
2022-08-16T07:54:32.179Z,12.10
2022-08-16T07:55:27.650Z,11.70
2022-08-16T07:56:34.131Z,11.40
2022-08-16T07:57:28.640Z,11.40
2022-08-16T07:58:34.031Z,11.10
2022-08-16T07:59:45.604Z,11.30
2022-08-16T08:00:28.598Z,11.70
2022-08-16T08:01:28.194Z,11.70
2022-08-16T08:02:28.037Z,11.50
2022-08-16T08:03:36.016Z,11.60
2022-08-16T08:04:32.373Z,11.50
2022-08-16T08:05:35.850Z,11.00
2022-08-16T08:06:28.540Z,11.50
2022-08-16T08:07:28.194Z,11.90
2022-08-16T08:08:50.670Z,13.20
2022-08-16T08:09:28.509Z,11.20
2022-08-16T08:10:29.500Z,11.10
2022-08-16T08:11:28.411Z,12.00
2022-08-16T08:12:32.105Z,11.10
2022-08-16T08:13:41.767Z,11.30
2022-08-16T08:14:30.046Z,11.00
2022-08-16T08:15:29.469Z,11.10
2022-08-16T08:16:30.755Z,11.60
2022-08-16T08:17:43.136Z,11.30
2022-08-16T08:18:29.901Z,11.10
2022-08-16T08:19:27.415Z,11.50
2022-08-16T08:20:28.375Z,11.10
2022-08-16T08:22:00.038Z,11.30
2022-08-16T08:22:28.430Z,11.60
2022-08-16T08:23:27.378Z,11.30
2022-08-16T08:24:31.707Z,11.40
2022-08-16T08:25:53.529Z,10.90
2022-08-16T08:26:28.650Z,10.80
2022-08-16T08:27:27.346Z,11.30
2022-08-16T08:28:28.324Z,11.20
2022-08-16T08:29:36.801Z,11.30
2022-08-16T08:30:50.268Z,11.30
2022-08-16T08:31:28.297Z,11.50
2022-08-16T08:32:57.604Z,11.60
2022-08-16T08:33:28.277Z,11.50
2022-08-16T08:34:27.272Z,11.70
2022-08-16T08:35:28.461Z,11.50
2022-08-16T08:36:33.078Z,12.00
2022-08-16T08:37:28.256Z,11.60
2022-08-16T08:38:43.815Z,12.20
2022-08-16T08:39:28.266Z,11.70
2022-08-16T08:40:27.653Z,11.50
2022-08-16T08:41:28.552Z,11.70
2022-08-16T08:42:27.193Z,11.70
2022-08-16T08:43:27.200Z,11.60
2022-08-16T08:44:28.929Z,12.10
2022-08-16T08:45:47.292Z,12.10
2022-08-16T08:46:28.150Z,12.30
2022-08-16T08:47:28.158Z,12.70
2022-08-16T08:48:34.399Z,12.10
2022-08-16T08:49:50.484Z,11.90
2022-08-16T08:50:31.574Z,12.60
2022-08-16T08:51:27.426Z,12.10
2022-08-16T08:52:35.452Z,12.80
2022-08-16T08:53:30.387Z,12.10
2022-08-16T08:54:27.077Z,12.20
2022-08-16T08:55:27.068Z,12.20
2022-08-16T08:56:27.056Z,12.30
2022-08-16T08:57:27.085Z,11.80
2022-08-16T08:58:34.125Z,12.20
2022-08-16T08:59:28.031Z,11.50
2022-08-16T09:00:29.986Z,12.10
2022-08-16T09:01:31.635Z,12.90
2022-08-16T09:02:28.015Z,11.90
2022-08-16T09:03:27.989Z,12.30
2022-08-16T09:04:27.167Z,11.90
2022-08-16T09:05:35.922Z,11.60
2022-08-16T09:06:27.959Z,13.30
2022-08-16T09:07:27.019Z,12.00
2022-08-16T09:08:27.295Z,11.90
2022-08-16T09:09:33.389Z,12.90
2022-08-16T09:10:29.498Z,12.60
2022-08-16T09:11:40.596Z,12.40
2022-08-16T09:12:35.631Z,12.10
2022-08-16T09:13:27.906Z,12.10
2022-08-16T09:14:27.885Z,12.20
2022-08-16T09:15:32.500Z,12.40
2022-08-16T09:17:01.564Z,12.20
2022-08-16T09:17:51.621Z,12.00
2022-08-16T09:18:35.768Z,11.70
2022-08-16T09:19:33.034Z,12.10
2022-08-16T09:20:27.829Z,12.40
2022-08-16T09:21:31.329Z,11.70
2022-08-16T09:22:26.813Z,12.00
2022-08-16T09:23:26.814Z,12.00
2022-08-16T09:24:52.735Z,11.50
2022-08-16T09:25:33.825Z,11.80
2022-08-16T09:26:45.938Z,13.30
2022-08-16T09:27:27.768Z,12.20
2022-08-16T09:29:13.750Z,12.30
2022-08-16T09:29:44.850Z,12.10
2022-08-16T09:30:36.151Z,12.00
2022-08-16T09:31:27.741Z,12.90
2022-08-16T09:32:30.276Z,12.00
2022-08-16T09:33:26.723Z,12.50
2022-08-16T09:34:27.697Z,12.40
2022-08-16T09:35:26.695Z,11.90
2022-08-16T09:36:32.680Z,13.40
2022-08-16T09:37:29.638Z,12.90
2022-08-16T09:38:32.128Z,12.10
2022-08-16T09:39:27.713Z,11.80
2022-08-16T09:40:33.002Z,12.20
2022-08-16T09:41:28.108Z,11.90
2022-08-16T09:42:26.645Z,12.00
2022-08-16T09:43:59.718Z,11.70
2022-08-16T09:45:11.471Z,12.10
2022-08-16T09:45:27.608Z,12.30
2022-08-16T09:46:48.472Z,12.80
2022-08-16T09:47:27.597Z,12.00
2022-08-16T09:48:44.887Z,11.60
2022-08-16T09:49:37.250Z,11.40
2022-08-16T09:50:36.693Z,12.80
2022-08-16T09:51:30.783Z,11.60
2022-08-16T09:52:27.545Z,11.90
2022-08-16T09:53:26.522Z,11.90
2022-08-16T09:54:32.437Z,11.50
2022-08-16T09:55:27.501Z,12.50
2022-08-16T09:56:26.744Z,12.40
2022-08-16T09:57:26.501Z,12.50
2022-08-16T09:58:41.614Z,11.90
2022-08-16T09:59:30.702Z,11.60
2022-08-16T10:00:44.214Z,11.90
2022-08-16T10:01:27.448Z,12.80
2022-08-16T10:02:28.008Z,11.40
2022-08-16T10:03:26.636Z,12.10
2022-08-16T10:04:29.981Z,11.50
2022-08-16T10:05:27.410Z,12.10
2022-08-16T10:06:26.401Z,12.40
2022-08-16T10:07:44.261Z,11.30
2022-08-16T10:08:27.732Z,11.60
2022-08-16T10:09:26.383Z,11.20
2022-08-16T10:10:30.300Z,11.50
2022-08-16T10:11:26.359Z,11.40
2022-08-16T10:12:26.359Z,11.40
2022-08-16T10:13:26.344Z,11.50
2022-08-16T10:14:33.248Z,11.40
2022-08-16T10:15:30.248Z,11.60
2022-08-16T10:16:26.307Z,11.80
2022-08-16T10:17:26.350Z,11.60
2022-08-16T10:18:56.372Z,11.40
2022-08-16T10:19:27.316Z,12.90
2022-08-16T10:20:26.268Z,12.10
2022-08-16T10:21:26.258Z,12.20
2022-08-16T10:22:27.259Z,12.20
2022-08-16T10:23:26.242Z,11.60
2022-08-16T10:24:28.203Z,11.80
2022-08-16T10:27:17.874Z,12.00
2022-08-16T10:27:20.326Z,11.60
2022-08-16T10:27:45.637Z,12.60
2022-08-16T10:28:28.709Z,12.00
2022-08-16T10:29:26.257Z,12.30
2022-08-16T10:30:28.660Z,11.90
2022-08-16T10:31:45.441Z,12.10
2022-08-16T10:32:27.176Z,12.30
2022-08-16T10:33:26.142Z,12.00
2022-08-16T10:34:31.368Z,12.10
2022-08-16T10:35:32.734Z,11.80
2022-08-16T10:36:37.801Z,12.50
2022-08-16T10:37:32.253Z,12.30
2022-08-16T10:38:27.726Z,12.30
2022-08-16T10:39:26.211Z,12.00
2022-08-16T10:40:29.073Z,12.30
2022-08-16T10:41:26.071Z,12.00
2022-08-16T10:42:26.098Z,12.10
2022-08-16T10:43:26.049Z,14.20
2022-08-16T10:44:27.755Z,13.10
2022-08-16T10:45:27.320Z,13.00
2022-08-16T10:46:39.126Z,12.50
2022-08-16T10:47:28.185Z,13.40
2022-08-16T10:48:29.253Z,13.50
2022-08-16T10:49:25.993Z,12.90
2022-08-16T10:50:25.974Z,12.50
2022-08-16T10:51:33.686Z,12.60
2022-08-16T10:52:26.976Z,13.10
2022-08-16T10:53:26.949Z,12.20
2022-08-16T10:54:28.548Z,12.50
2022-08-16T10:55:44.269Z,12.80
2022-08-16T10:56:56.020Z,12.10
2022-08-16T10:57:26.913Z,11.70
2022-08-16T10:58:33.928Z,11.70
2022-08-16T10:59:38.343Z,11.90
2022-08-16T11:00:26.901Z,12.70
2022-08-16T11:01:42.977Z,11.90
2022-08-16T11:02:57.531Z,12.30
2022-08-16T11:03:45.721Z,11.90
2022-08-16T11:05:05.532Z,12.40
2022-08-16T11:05:27.014Z,11.90
2022-08-16T11:06:28.052Z,13.00
2022-08-16T11:07:55.740Z,12.80
2022-08-16T11:08:34.992Z,11.90
2022-08-16T11:09:29.125Z,12.60
2022-08-16T11:11:26.763Z,12.30
2022-08-16T11:12:25.764Z,12.60
2022-08-16T11:14:26.733Z,11.50
2022-08-16T11:15:26.195Z,12.50
2022-08-16T11:16:26.915Z,12.00
2022-08-16T11:17:25.752Z,12.00
2022-08-16T11:19:02.990Z,11.80
2022-08-16T11:19:26.676Z,12.30
2022-08-16T11:20:42.897Z,11.60
2022-08-16T11:21:29.445Z,11.60
2022-08-16T11:22:47.051Z,12.10
2022-08-16T11:23:26.632Z,11.80
2022-08-16T11:24:39.481Z,12.50
2022-08-16T11:26:03.897Z,11.80
2022-08-16T11:26:26.604Z,11.30
2022-08-16T11:27:32.836Z,12.30
2022-08-16T11:29:26.808Z,11.50
2022-08-16T11:30:36.886Z,11.50
2022-08-16T11:31:26.584Z,12.00
2022-08-16T11:32:31.985Z,12.10
2022-08-16T11:33:52.099Z,11.60
2022-08-16T11:34:31.844Z,12.30
2022-08-16T11:36:28.192Z,11.50
2022-08-16T11:37:27.696Z,12.80
2022-08-16T11:38:51.398Z,11.80
2022-08-16T11:39:26.533Z,12.00
2022-08-16T11:40:32.446Z,12.20
2022-08-16T11:41:26.598Z,12.10
2022-08-16T11:42:29.878Z,13.50
2022-08-16T11:43:26.692Z,11.30
2022-08-16T11:44:52.145Z,12.00
2022-08-16T11:45:26.426Z,11.90
2022-08-16T11:46:44.546Z,12.20
2022-08-16T11:47:26.400Z,12.40
2022-08-16T11:48:25.376Z,13.00
2022-08-16T11:49:25.364Z,13.20
2022-08-16T11:50:25.356Z,12.80
2022-08-16T11:51:25.347Z,12.40
2022-08-16T11:52:25.413Z,12.80
2022-08-16T11:53:25.323Z,12.30
2022-08-16T11:54:35.749Z,12.50
2022-08-16T11:55:26.299Z,12.30
2022-08-16T11:56:51.557Z,11.90
2022-08-16T11:57:26.295Z,12.50
2022-08-16T11:58:25.270Z,12.20
2022-08-16T11:59:28.402Z,12.10
2022-08-16T12:00:49.956Z,12.40
2022-08-16T12:01:29.727Z,13.20
2022-08-16T12:02:31.565Z,11.70
2022-08-16T12:03:34.202Z,12.20
2022-08-16T12:04:26.364Z,13.10
2022-08-16T12:05:25.195Z,12.90
2022-08-16T12:06:30.784Z,12.00
2022-08-16T12:07:26.188Z,12.50
2022-08-16T12:08:26.094Z,12.90
2022-08-16T12:09:29.541Z,11.90
2022-08-16T12:10:25.142Z,13.10
2022-08-16T12:11:26.640Z,12.30
2022-08-16T12:12:25.140Z,12.00
2022-08-16T12:13:25.117Z,14.00
2022-08-16T12:14:25.106Z,11.90
2022-08-16T12:15:25.091Z,11.70
2022-08-16T12:16:25.083Z,11.70
2022-08-16T12:17:26.076Z,11.70
2022-08-16T12:18:25.058Z,11.70
2022-08-16T12:19:35.406Z,12.40
2022-08-16T12:20:26.046Z,11.70
2022-08-16T12:21:25.037Z,12.80
2022-08-16T12:22:26.066Z,13.10
2022-08-16T12:23:25.007Z,12.80
2022-08-16T12:24:25.016Z,11.60
2022-08-16T12:25:24.985Z,11.60
2022-08-16T12:26:24.977Z,12.30
2022-08-16T12:27:24.991Z,12.00
2022-08-16T12:28:25.352Z,11.30
2022-08-16T12:29:25.959Z,11.40
2022-08-16T12:30:26.998Z,11.70
2022-08-16T12:31:25.926Z,11.70
2022-08-16T12:32:35.757Z,12.90
2022-08-16T12:33:26.373Z,11.40
2022-08-16T12:34:24.888Z,13.10
2022-08-16T12:35:24.877Z,13.60
2022-08-16T12:36:24.866Z,11.70
2022-08-16T12:37:24.886Z,12.30
2022-08-16T12:38:40.913Z,12.70
2022-08-16T12:39:29.111Z,12.10
2022-08-16T12:40:29.078Z,11.60
2022-08-16T12:41:25.329Z,12.00
2022-08-16T12:42:34.729Z,12.40
2022-08-16T12:43:25.788Z,12.20
2022-08-16T12:44:25.785Z,11.60
2022-08-16T12:45:24.779Z,11.40
2022-08-16T12:46:24.768Z,12.00
2022-08-16T12:47:24.761Z,11.30
2022-08-16T12:48:36.312Z,11.20
2022-08-16T12:49:25.730Z,11.20
2022-08-16T12:50:24.725Z,11.40
2022-08-16T12:51:25.704Z,11.40
2022-08-16T12:52:32.851Z,11.30
2022-08-16T12:53:25.687Z,11.50
2022-08-16T12:54:25.676Z,11.90
2022-08-16T12:55:24.673Z,11.40
2022-08-16T12:56:25.672Z,12.00